sensor_id;sensor_type;location;lat;lon;timestamp;P1;durP1;ratioP1;P2;durP2;ratioP2
10947;SDS011;5526;42.070;24.752;2023-08-01T00:01:35;4.00;;;3.80;;
10947;SDS011;5526;42.070;24.752;2023-08-01T00:04:02;4.00;;;3.80;;
10947;SDS011;5526;42.070;24.752;2023-08-01T00:06:29;3.67;;;3.47;;
10947;SDS011;5526;42.070;24.752;2023-08-01T00:08:56;4.10;;;3.90;;
10947;SDS011;5526;42.070;24.752;2023-08-01T00:11:23;3.65;;;3.45;;
10947;SDS011;5526;42.070;24.752;2023-08-01T00:13:50;4.25;;;4.05;;
10947;SDS011;5526;42.070;24.752;2023-08-01T00:16:17;4.50;;;4.20;;
10947;SDS011;5526;42.070;24.752;2023-08-01T00:18:45;3.90;;;3.70;;
10947;SDS011;5526;42.070;24.752;2023-08-01T00:21:12;3.90;;;3.70;;
10947;SDS011;5526;42.070;24.752;2023-08-01T00:23:39;4.00;;;3.80;;
10947;SDS011;5526;42.070;24.752;2023-08-01T00:26:06;4.10;;;3.90;;
10947;SDS011;5526;42.070;24.752;2023-08-01T00:28:33;3.85;;;3.65;;
10947;SDS011;5526;42.070;24.752;2023-08-01T00:31:01;3.83;;;3.50;;
10947;SDS011;5526;42.070;24.752;2023-08-01T00:33:29;4.90;;;4.68;;
10947;SDS011;5526;42.070;24.752;2023-08-01T00:35:57;5.22;;;4.93;;
10947;SDS011;5526;42.070;24.752;2023-08-01T00:38:25;6.18;;;5.78;;
10947;SDS011;5526;42.070;24.752;2023-08-01T00:40:52;6.50;;;6.00;;
10947;SDS011;5526;42.070;24.752;2023-08-01T00:43:19;6.53;;;6.03;;
10947;SDS011;5526;42.070;24.752;2023-08-01T00:45:46;6.25;;;5.82;;
10947;SDS011;5526;42.070;24.752;2023-08-01T00:48:13;6.05;;;5.75;;
10947;SDS011;5526;42.070;24.752;2023-08-01T00:50:40;6.72;;;6.25;;
10947;SDS011;5526;42.070;24.752;2023-08-01T00:53:09;6.65;;;6.05;;
10947;SDS011;5526;42.070;24.752;2023-08-01T00:55:38;6.93;;;6.28;;
10947;SDS011;5526;42.070;24.752;2023-08-01T00:58:05;6.50;;;6.10;;
10947;SDS011;5526;42.070;24.752;2023-08-01T01:00:32;6.93;;;6.43;;
10947;SDS011;5526;42.070;24.752;2023-08-01T01:03:00;6.50;;;6.10;;
10947;SDS011;5526;42.070;24.752;2023-08-01T01:05:27;6.50;;;6.03;;
10947;SDS011;5526;42.070;24.752;2023-08-01T01:08:02;6.80;;;6.30;;
10947;SDS011;5526;42.070;24.752;2023-08-01T01:10:31;7.00;;;6.50;;
10947;SDS011;5526;42.070;24.752;2023-08-01T01:12:58;5.85;;;5.45;;
10947;SDS011;5526;42.070;24.752;2023-08-01T01:15:25;5.90;;;5.50;;
10947;SDS011;5526;42.070;24.752;2023-08-01T01:17:52;5.70;;;5.20;;
10947;SDS011;5526;42.070;24.752;2023-08-01T01:20:22;5.78;;;5.28;;
10947;SDS011;5526;42.070;24.752;2023-08-01T01:22:51;5.57;;;5.18;;
10947;SDS011;5526;42.070;24.752;2023-08-01T01:25:19;5.28;;;4.97;;
10947;SDS011;5526;42.070;24.752;2023-08-01T01:27:48;5.45;;;5.10;;
10947;SDS011;5526;42.070;24.752;2023-08-01T01:30:18;4.35;;;4.15;;
10947;SDS011;5526;42.070;24.752;2023-08-01T01:32:47;4.65;;;4.35;;
10947;SDS011;5526;42.070;24.752;2023-08-01T01:35:15;3.65;;;3.45;;
10947;SDS011;5526;42.070;24.752;2023-08-01T01:37:42;3.70;;;3.50;;
10947;SDS011;5526;42.070;24.752;2023-08-01T01:40:11;4.07;;;3.88;;
10947;SDS011;5526;42.070;24.752;2023-08-01T01:42:38;3.85;;;3.65;;
10947;SDS011;5526;42.070;24.752;2023-08-01T01:45:05;4.07;;;3.80;;
10947;SDS011;5526;42.070;24.752;2023-08-01T01:47:33;4.00;;;3.80;;
10947;SDS011;5526;42.070;24.752;2023-08-01T01:50:00;4.60;;;4.40;;
10947;SDS011;5526;42.070;24.752;2023-08-01T01:52:27;4.30;;;4.10;;
10947;SDS011;5526;42.070;24.752;2023-08-01T01:54:54;4.57;;;4.28;;
10947;SDS011;5526;42.070;24.752;2023-08-01T01:57:22;4.78;;;4.45;;
10947;SDS011;5526;42.070;24.752;2023-08-01T01:59:49;4.25;;;4.00;;
10947;SDS011;5526;42.070;24.752;2023-08-01T02:02:17;4.05;;;3.80;;
10947;SDS011;5526;42.070;24.752;2023-08-01T02:04:45;4.15;;;3.95;;
10947;SDS011;5526;42.070;24.752;2023-08-01T02:07:12;4.72;;;4.30;;
10947;SDS011;5526;42.070;24.752;2023-08-01T02:09:39;4.20;;;4.00;;
10947;SDS011;5526;42.070;24.752;2023-08-01T02:12:07;4.22;;;3.97;;
10947;SDS011;5526;42.070;24.752;2023-08-01T02:14:37;4.60;;;4.38;;
10947;SDS011;5526;42.070;24.752;2023-08-01T02:17:05;4.32;;;4.03;;
10947;SDS011;5526;42.070;24.752;2023-08-01T02:19:32;4.25;;;4.00;;
10947;SDS011;5526;42.070;24.752;2023-08-01T02:21:59;3.80;;;3.60;;
10947;SDS011;5526;42.070;24.752;2023-08-01T02:24:27;4.57;;;4.28;;
10947;SDS011;5526;42.070;24.752;2023-08-01T02:26:55;4.28;;;4.07;;
10947;SDS011;5526;42.070;24.752;2023-08-01T02:29:22;4.55;;;4.20;;
10947;SDS011;5526;42.070;24.752;2023-08-01T02:31:50;4.45;;;4.25;;
10947;SDS011;5526;42.070;24.752;2023-08-01T02:34:17;4.20;;;4.03;;
10947;SDS011;5526;42.070;24.752;2023-08-01T02:36:44;4.70;;;4.40;;
10947;SDS011;5526;42.070;24.752;2023-08-01T02:39:11;4.45;;;4.05;;
10947;SDS011;5526;42.070;24.752;2023-08-01T02:41:38;4.93;;;4.50;;
10947;SDS011;5526;42.070;24.752;2023-08-01T02:44:05;4.65;;;4.25;;
10947;SDS011;5526;42.070;24.752;2023-08-01T02:46:32;4.63;;;4.30;;
10947;SDS011;5526;42.070;24.752;2023-08-01T02:49:01;4.57;;;4.32;;
10947;SDS011;5526;42.070;24.752;2023-08-01T02:51:28;4.32;;;4.03;;
10947;SDS011;5526;42.070;24.752;2023-08-01T02:53:55;4.68;;;4.35;;
10947;SDS011;5526;42.070;24.752;2023-08-01T02:56:22;4.47;;;4.18;;
10947;SDS011;5526;42.070;24.752;2023-08-01T02:58:49;6.47;;;4.60;;
10947;SDS011;5526;42.070;24.752;2023-08-01T03:01:17;4.28;;;4.07;;
10947;SDS011;5526;42.070;24.752;2023-08-01T03:03:44;4.55;;;4.35;;
10947;SDS011;5526;42.070;24.752;2023-08-01T03:06:13;4.78;;;4.50;;
10947;SDS011;5526;42.070;24.752;2023-08-01T03:08:41;4.43;;;4.13;;
10947;SDS011;5526;42.070;24.752;2023-08-01T03:11:08;5.35;;;4.95;;
10947;SDS011;5526;42.070;24.752;2023-08-01T03:13:35;5.35;;;4.97;;
10947;SDS011;5526;42.070;24.752;2023-08-01T03:16:02;5.90;;;5.47;;
10947;SDS011;5526;42.070;24.752;2023-08-01T03:18:30;5.78;;;5.35;;
10947;SDS011;5526;42.070;24.752;2023-08-01T03:20:56;6.32;;;5.85;;
10947;SDS011;5526;42.070;24.752;2023-08-01T03:23:25;8.43;;;5.72;;
10947;SDS011;5526;42.070;24.752;2023-08-01T03:25:52;6.05;;;5.65;;
10947;SDS011;5526;42.070;24.752;2023-08-01T03:28:19;7.00;;;6.60;;
10947;SDS011;5526;42.070;24.752;2023-08-01T03:30:46;7.22;;;6.63;;
10947;SDS011;5526;42.070;24.752;2023-08-01T03:33:15;7.28;;;6.70;;
10947;SDS011;5526;42.070;24.752;2023-08-01T03:35:43;7.45;;;6.85;;
10947;SDS011;5526;42.070;24.752;2023-08-01T03:38:10;7.57;;;6.97;;
10947;SDS011;5526;42.070;24.752;2023-08-01T03:40:38;7.95;;;7.25;;
10947;SDS011;5526;42.070;24.752;2023-08-01T03:43:06;7.63;;;7.07;;
10947;SDS011;5526;42.070;24.752;2023-08-01T03:45:35;7.53;;;7.00;;
10947;SDS011;5526;42.070;24.752;2023-08-01T03:48:02;7.70;;;6.97;;
10947;SDS011;5526;42.070;24.752;2023-08-01T03:50:29;7.60;;;7.00;;
10947;SDS011;5526;42.070;24.752;2023-08-01T03:52:56;7.03;;;6.57;;
10947;SDS011;5526;42.070;24.752;2023-08-01T03:55:23;7.75;;;7.10;;
10947;SDS011;5526;42.070;24.752;2023-08-01T03:57:52;8.05;;;7.53;;
10947;SDS011;5526;42.070;24.752;2023-08-01T04:00:19;7.25;;;6.75;;
10947;SDS011;5526;42.070;24.752;2023-08-01T04:02:46;7.53;;;7.03;;
10947;SDS011;5526;42.070;24.752;2023-08-01T04:05:13;7.00;;;6.50;;
10947;SDS011;5526;42.070;24.752;2023-08-01T04:07:40;7.15;;;6.65;;
10947;SDS011;5526;42.070;24.752;2023-08-01T04:10:08;6.82;;;6.35;;
10947;SDS011;5526;42.070;24.752;2023-08-01T04:12:36;7.57;;;6.88;;
10947;SDS011;5526;42.070;24.752;2023-08-01T04:15:05;7.85;;;7.25;;
10947;SDS011;5526;42.070;24.752;2023-08-01T04:17:33;7.47;;;6.80;;
10947;SDS011;5526;42.070;24.752;2023-08-01T04:20:00;8.02;;;7.28;;
10947;SDS011;5526;42.070;24.752;2023-08-01T04:22:27;7.47;;;6.72;;
10947;SDS011;5526;42.070;24.752;2023-08-01T04:24:54;7.65;;;7.05;;
10947;SDS011;5526;42.070;24.752;2023-08-01T04:27:21;7.25;;;6.75;;
10947;SDS011;5526;42.070;24.752;2023-08-01T04:29:48;7.40;;;6.80;;
10947;SDS011;5526;42.070;24.752;2023-08-01T04:32:17;7.80;;;7.20;;
10947;SDS011;5526;42.070;24.752;2023-08-01T04:34:44;7.40;;;6.72;;
10947;SDS011;5526;42.070;24.752;2023-08-01T04:37:11;7.07;;;6.50;;
10947;SDS011;5526;42.070;24.752;2023-08-01T04:39:38;7.60;;;7.00;;
10947;SDS011;5526;42.070;24.752;2023-08-01T04:42:05;8.13;;;7.20;;
10947;SDS011;5526;42.070;24.752;2023-08-01T04:44:33;7.55;;;6.95;;
10947;SDS011;5526;42.070;24.752;2023-08-01T04:47:00;8.50;;;7.85;;
10947;SDS011;5526;42.070;24.752;2023-08-01T04:49:28;7.72;;;7.10;;
10947;SDS011;5526;42.070;24.752;2023-08-01T04:51:55;8.40;;;7.55;;
10947;SDS011;5526;42.070;24.752;2023-08-01T04:54:22;7.55;;;7.00;;
10947;SDS011;5526;42.070;24.752;2023-08-01T04:56:50;7.25;;;6.65;;
10947;SDS011;5526;42.070;24.752;2023-08-01T04:59:17;8.13;;;7.35;;
10947;SDS011;5526;42.070;24.752;2023-08-01T05:01:44;7.97;;;7.28;;
10947;SDS011;5526;42.070;24.752;2023-08-01T05:04:11;8.95;;;8.13;;
10947;SDS011;5526;42.070;24.752;2023-08-01T05:06:39;8.77;;;7.30;;
10947;SDS011;5526;42.070;24.752;2023-08-01T05:09:06;7.20;;;6.60;;
10947;SDS011;5526;42.070;24.752;2023-08-01T05:11:33;7.25;;;6.70;;
10947;SDS011;5526;42.070;24.752;2023-08-01T05:14:00;6.90;;;6.40;;
10947;SDS011;5526;42.070;24.752;2023-08-01T05:16:28;6.68;;;6.00;;
10947;SDS011;5526;42.070;24.752;2023-08-01T05:18:55;7.03;;;5.65;;
10947;SDS011;5526;42.070;24.752;2023-08-01T05:21:22;8.13;;;5.97;;
10947;SDS011;5526;42.070;24.752;2023-08-01T05:23:52;6.22;;;5.72;;
10947;SDS011;5526;42.070;24.752;2023-08-01T05:26:19;7.45;;;5.82;;
10947;SDS011;5526;42.070;24.752;2023-08-01T05:28:46;8.15;;;7.35;;
10947;SDS011;5526;42.070;24.752;2023-08-01T05:31:13;7.20;;;6.60;;
10947;SDS011;5526;42.070;24.752;2023-08-01T05:33:40;7.78;;;7.07;;
10947;SDS011;5526;42.070;24.752;2023-08-01T05:36:07;8.23;;;7.50;;
10947;SDS011;5526;42.070;24.752;2023-08-01T05:38:34;8.73;;;7.38;;
10947;SDS011;5526;42.070;24.752;2023-08-01T05:41:03;9.82;;;7.07;;
10947;SDS011;5526;42.070;24.752;2023-08-01T05:43:30;7.45;;;6.88;;
10947;SDS011;5526;42.070;24.752;2023-08-01T05:45:57;7.30;;;6.68;;
10947;SDS011;5526;42.070;24.752;2023-08-01T05:48:24;6.85;;;6.35;;
10947;SDS011;5526;42.070;24.752;2023-08-01T05:50:51;6.75;;;6.35;;
10947;SDS011;5526;42.070;24.752;2023-08-01T05:53:20;8.32;;;6.60;;
10947;SDS011;5526;42.070;24.752;2023-08-01T05:55:47;7.18;;;6.55;;
10947;SDS011;5526;42.070;24.752;2023-08-01T05:58:16;6.47;;;5.97;;
10947;SDS011;5526;42.070;24.752;2023-08-01T06:00:44;6.80;;;6.20;;
10947;SDS011;5526;42.070;24.752;2023-08-01T06:03:11;6.65;;;6.10;;
10947;SDS011;5526;42.070;24.752;2023-08-01T06:05:38;7.10;;;6.65;;
10947;SDS011;5526;42.070;24.752;2023-08-01T06:08:05;6.28;;;5.70;;
10947;SDS011;5526;42.070;24.752;2023-08-01T06:10:34;6.22;;;5.82;;
10947;SDS011;5526;42.070;24.752;2023-08-01T06:13:01;6.07;;;5.50;;
10947;SDS011;5526;42.070;24.752;2023-08-01T06:15:30;6.18;;;5.72;;
10947;SDS011;5526;42.070;24.752;2023-08-01T06:17:57;6.00;;;5.60;;
10947;SDS011;5526;42.070;24.752;2023-08-01T06:20:24;6.20;;;5.60;;
10947;SDS011;5526;42.070;24.752;2023-08-01T06:22:51;7.38;;;5.45;;
10947;SDS011;5526;42.070;24.752;2023-08-01T06:25:18;6.25;;;5.68;;
10947;SDS011;5526;42.070;24.752;2023-08-01T06:27:46;6.28;;;5.78;;
10947;SDS011;5526;42.070;24.752;2023-08-01T06:30:13;5.47;;;5.07;;
10947;SDS011;5526;42.070;24.752;2023-08-01T06:32:41;5.80;;;5.30;;
10947;SDS011;5526;42.070;24.752;2023-08-01T06:35:09;6.05;;;5.50;;
10947;SDS011;5526;42.070;24.752;2023-08-01T06:37:36;6.43;;;5.30;;
10947;SDS011;5526;42.070;24.752;2023-08-01T06:40:03;5.32;;;4.93;;
10947;SDS011;5526;42.070;24.752;2023-08-01T06:42:31;5.00;;;4.70;;
10947;SDS011;5526;42.070;24.752;2023-08-01T06:44:58;5.47;;;5.07;;
10947;SDS011;5526;42.070;24.752;2023-08-01T06:47:25;5.35;;;4.95;;
10947;SDS011;5526;42.070;24.752;2023-08-01T06:49:54;5.43;;;4.93;;
10947;SDS011;5526;42.070;24.752;2023-08-01T06:52:21;5.13;;;4.82;;
10947;SDS011;5526;42.070;24.752;2023-08-01T06:54:48;5.70;;;5.03;;
10947;SDS011;5526;42.070;24.752;2023-08-01T06:57:15;5.75;;;5.32;;
10947;SDS011;5526;42.070;24.752;2023-08-01T06:59:42;7.28;;;5.72;;
10947;SDS011;5526;42.070;24.752;2023-08-01T07:02:10;4.53;;;4.22;;
10947;SDS011;5526;42.070;24.752;2023-08-01T07:04:37;4.15;;;3.70;;
10947;SDS011;5526;42.070;24.752;2023-08-01T07:07:06;4.35;;;3.95;;
10947;SDS011;5526;42.070;24.752;2023-08-01T07:09:34;4.38;;;3.97;;
10947;SDS011;5526;42.070;24.752;2023-08-01T07:12:01;3.90;;;3.70;;
10947;SDS011;5526;42.070;24.752;2023-08-01T07:14:28;3.65;;;3.20;;
10947;SDS011;5526;42.070;24.752;2023-08-01T07:16:57;4.10;;;3.80;;
10947;SDS011;5526;42.070;24.752;2023-08-01T07:19:24;3.95;;;3.53;;
10947;SDS011;5526;42.070;24.752;2023-08-01T07:21:51;4.13;;;3.80;;
10947;SDS011;5526;42.070;24.752;2023-08-01T07:24:19;3.92;;;3.63;;
10947;SDS011;5526;42.070;24.752;2023-08-01T07:26:46;4.20;;;3.90;;
10947;SDS011;5526;42.070;24.752;2023-08-01T07:29:13;4.55;;;4.32;;
10947;SDS011;5526;42.070;24.752;2023-08-01T07:31:41;4.22;;;3.97;;
10947;SDS011;5526;42.070;24.752;2023-08-01T07:34:08;4.25;;;3.85;;
10947;SDS011;5526;42.070;24.752;2023-08-01T07:36:35;3.92;;;3.72;;
10947;SDS011;5526;42.070;24.752;2023-08-01T07:39:02;3.50;;;3.30;;
10947;SDS011;5526;42.070;24.752;2023-08-01T07:41:31;4.32;;;3.90;;
10947;SDS011;5526;42.070;24.752;2023-08-01T07:44:00;3.83;;;3.53;;
10947;SDS011;5526;42.070;24.752;2023-08-01T07:46:28;4.57;;;4.18;;
10947;SDS011;5526;42.070;24.752;2023-08-01T07:48:55;4.45;;;4.15;;
10947;SDS011;5526;42.070;24.752;2023-08-01T07:51:22;4.25;;;4.03;;
10947;SDS011;5526;42.070;24.752;2023-08-01T07:53:50;4.40;;;4.00;;
10947;SDS011;5526;42.070;24.752;2023-08-01T07:56:18;4.18;;;3.67;;
10947;SDS011;5526;42.070;24.752;2023-08-01T07:58:47;4.15;;;3.85;;
10947;SDS011;5526;42.070;24.752;2023-08-01T08:01:14;4.65;;;3.72;;
10947;SDS011;5526;42.070;24.752;2023-08-01T08:03:42;4.03;;;3.75;;
10947;SDS011;5526;42.070;24.752;2023-08-01T08:06:09;3.97;;;3.72;;
10947;SDS011;5526;42.070;24.752;2023-08-01T08:08:36;3.97;;;3.63;;
10947;SDS011;5526;42.070;24.752;2023-08-01T08:11:03;3.63;;;3.42;;
10947;SDS011;5526;42.070;24.752;2023-08-01T08:13:30;4.13;;;3.83;;
10947;SDS011;5526;42.070;24.752;2023-08-01T08:15:59;3.55;;;3.35;;
10947;SDS011;5526;42.070;24.752;2023-08-01T08:18:26;4.22;;;4.00;;
10947;SDS011;5526;42.070;24.752;2023-08-01T08:20:53;3.78;;;3.67;;
10947;SDS011;5526;42.070;24.752;2023-08-01T08:23:21;6.63;;;4.30;;
10947;SDS011;5526;42.070;24.752;2023-08-01T08:25:48;3.95;;;3.67;;
10947;SDS011;5526;42.070;24.752;2023-08-01T08:28:16;3.85;;;3.65;;
10947;SDS011;5526;42.070;24.752;2023-08-01T08:30:54;4.00;;;3.78;;
10947;SDS011;5526;42.070;24.752;2023-08-01T08:33:23;4.40;;;4.15;;
10947;SDS011;5526;42.070;24.752;2023-08-01T08:35:50;4.68;;;4.20;;
10947;SDS011;5526;42.070;24.752;2023-08-01T08:38:17;4.40;;;3.95;;
10947;SDS011;5526;42.070;24.752;2023-08-01T08:40:48;4.55;;;4.18;;
10947;SDS011;5526;42.070;24.752;2023-08-01T08:43:22;4.15;;;3.85;;
10947;SDS011;5526;42.070;24.752;2023-08-01T08:45:50;4.53;;;4.18;;
10947;SDS011;5526;42.070;24.752;2023-08-01T08:48:22;4.30;;;4.10;;
10947;SDS011;5526;42.070;24.752;2023-08-01T08:50:50;4.53;;;4.13;;
10947;SDS011;5526;42.070;24.752;2023-08-01T08:53:18;4.45;;;4.25;;
10947;SDS011;5526;42.070;24.752;2023-08-01T08:55:47;5.13;;;4.70;;
10947;SDS011;5526;42.070;24.752;2023-08-01T08:58:15;5.43;;;4.60;;
10947;SDS011;5526;42.070;24.752;2023-08-01T09:00:43;4.93;;;4.53;;
10947;SDS011;5526;42.070;24.752;2023-08-01T09:03:11;4.57;;;4.38;;
10947;SDS011;5526;42.070;24.752;2023-08-01T09:05:40;4.53;;;4.28;;
10947;SDS011;5526;42.070;24.752;2023-08-01T09:08:15;4.40;;;4.10;;
10947;SDS011;5526;42.070;24.752;2023-08-01T09:10:44;4.60;;;4.20;;
10947;SDS011;5526;42.070;24.752;2023-08-01T09:13:11;5.90;;;4.93;;
10947;SDS011;5526;42.070;24.752;2023-08-01T09:15:39;4.47;;;4.07;;
10947;SDS011;5526;42.070;24.752;2023-08-01T09:18:07;4.40;;;4.10;;
10947;SDS011;5526;42.070;24.752;2023-08-01T09:20:43;4.78;;;4.43;;
10947;SDS011;5526;42.070;24.752;2023-08-01T09:23:11;4.63;;;4.22;;
10947;SDS011;5526;42.070;24.752;2023-08-01T09:25:38;4.80;;;4.45;;
10947;SDS011;5526;42.070;24.752;2023-08-01T09:28:15;5.40;;;4.95;;
10947;SDS011;5526;42.070;24.752;2023-08-01T09:30:50;5.45;;;4.97;;
10947;SDS011;5526;42.070;24.752;2023-08-01T09:33:19;5.03;;;4.72;;
10947;SDS011;5526;42.070;24.752;2023-08-01T09:35:48;7.45;;;4.60;;
10947;SDS011;5526;42.070;24.752;2023-08-01T09:38:16;5.13;;;4.70;;
10947;SDS011;5526;42.070;24.752;2023-08-01T09:40:44;4.65;;;4.45;;
10947;SDS011;5526;42.070;24.752;2023-08-01T09:43:12;5.88;;;5.20;;
10947;SDS011;5526;42.070;24.752;2023-08-01T09:45:49;11.00;;;5.55;;
10947;SDS011;5526;42.070;24.752;2023-08-01T09:48:26;4.30;;;4.10;;
10947;SDS011;5526;42.070;24.752;2023-08-01T09:51:08;4.97;;;4.68;;
10947;SDS011;5526;42.070;24.752;2023-08-01T09:53:46;5.10;;;4.70;;
10947;SDS011;5526;42.070;24.752;2023-08-01T09:56:15;5.15;;;4.85;;
10947;SDS011;5526;42.070;24.752;2023-08-01T09:58:46;4.78;;;4.38;;
10947;SDS011;5526;42.070;24.752;2023-08-01T10:01:13;4.97;;;4.68;;
10947;SDS011;5526;42.070;24.752;2023-08-01T10:03:42;4.72;;;4.43;;
10947;SDS011;5526;42.070;24.752;2023-08-01T10:06:14;5.13;;;4.72;;
10947;SDS011;5526;42.070;24.752;2023-08-01T10:08:45;5.15;;;4.65;;
10947;SDS011;5526;42.070;24.752;2023-08-01T10:11:14;5.90;;;5.47;;
10947;SDS011;5526;42.070;24.752;2023-08-01T10:13:44;5.15;;;4.70;;
10947;SDS011;5526;42.070;24.752;2023-08-01T10:16:12;5.32;;;4.93;;
10947;SDS011;5526;42.070;24.752;2023-08-01T10:18:41;4.70;;;4.40;;
10947;SDS011;5526;42.070;24.752;2023-08-01T10:21:09;5.00;;;4.60;;
10947;SDS011;5526;42.070;24.752;2023-08-01T10:23:41;5.40;;;4.90;;
10947;SDS011;5526;42.070;24.752;2023-08-01T10:26:10;5.15;;;4.65;;
10947;SDS011;5526;42.070;24.752;2023-08-01T10:28:39;5.45;;;4.95;;
10947;SDS011;5526;42.070;24.752;2023-08-01T10:31:11;5.57;;;5.07;;
10947;SDS011;5526;42.070;24.752;2023-08-01T10:33:40;6.97;;;5.13;;
10947;SDS011;5526;42.070;24.752;2023-08-01T10:36:14;6.10;;;5.60;;
10947;SDS011;5526;42.070;24.752;2023-08-01T10:38:50;7.10;;;5.50;;
10947;SDS011;5526;42.070;24.752;2023-08-01T10:41:18;6.60;;;5.60;;
10947;SDS011;5526;42.070;24.752;2023-08-01T10:43:47;5.30;;;5.00;;
10947;SDS011;5526;42.070;24.752;2023-08-01T10:46:14;5.80;;;5.43;;
10947;SDS011;5526;42.070;24.752;2023-08-01T10:48:48;5.72;;;5.20;;
10947;SDS011;5526;42.070;24.752;2023-08-01T10:51:16;6.03;;;5.53;;
10947;SDS011;5526;42.070;24.752;2023-08-01T10:53:43;6.65;;;6.10;;
10947;SDS011;5526;42.070;24.752;2023-08-01T10:56:18;6.60;;;6.10;;
10947;SDS011;5526;42.070;24.752;2023-08-01T10:58:46;5.95;;;5.50;;
10947;SDS011;5526;42.070;24.752;2023-08-01T11:01:14;6.45;;;6.10;;
10947;SDS011;5526;42.070;24.752;2023-08-01T11:03:41;6.40;;;6.00;;
10947;SDS011;5526;42.070;24.752;2023-08-01T11:06:09;6.20;;;5.80;;
10947;SDS011;5526;42.070;24.752;2023-08-01T11:08:36;6.13;;;5.68;;
10947;SDS011;5526;42.070;24.752;2023-08-01T11:11:05;6.68;;;6.28;;
10947;SDS011;5526;42.070;24.752;2023-08-01T11:13:35;6.60;;;6.10;;
10947;SDS011;5526;42.070;24.752;2023-08-01T11:16:02;5.78;;;5.32;;
10947;SDS011;5526;42.070;24.752;2023-08-01T11:18:40;6.68;;;6.28;;
10947;SDS011;5526;42.070;24.752;2023-08-01T11:21:07;7.18;;;6.68;;
10947;SDS011;5526;42.070;24.752;2023-08-01T11:23:34;5.95;;;5.65;;
10947;SDS011;5526;42.070;24.752;2023-08-01T11:26:05;7.07;;;6.47;;
10947;SDS011;5526;42.070;24.752;2023-08-01T11:28:35;7.85;;;7.03;;
10947;SDS011;5526;42.070;24.752;2023-08-01T11:31:10;7.18;;;6.78;;
10947;SDS011;5526;42.070;24.752;2023-08-01T11:33:37;6.90;;;6.50;;
10947;SDS011;5526;42.070;24.752;2023-08-01T11:36:04;7.65;;;7.05;;
10947;SDS011;5526;42.070;24.752;2023-08-01T11:38:33;7.35;;;6.65;;
10947;SDS011;5526;42.070;24.752;2023-08-01T11:41:04;6.90;;;6.40;;
10947;SDS011;5526;42.070;24.752;2023-08-01T11:43:39;7.53;;;7.03;;
10947;SDS011;5526;42.070;24.752;2023-08-01T11:46:07;6.57;;;6.28;;
10947;SDS011;5526;42.070;24.752;2023-08-01T11:48:34;7.28;;;6.78;;
10947;SDS011;5526;42.070;24.752;2023-08-01T11:51:02;7.63;;;7.10;;
10947;SDS011;5526;42.070;24.752;2023-08-01T11:53:29;7.35;;;6.93;;
10947;SDS011;5526;42.070;24.752;2023-08-01T11:56:03;7.25;;;6.85;;
10947;SDS011;5526;42.070;24.752;2023-08-01T11:58:30;7.55;;;7.03;;
10947;SDS011;5526;42.070;24.752;2023-08-01T12:01:04;7.50;;;7.03;;
10947;SDS011;5526;42.070;24.752;2023-08-01T12:03:32;7.45;;;6.95;;
10947;SDS011;5526;42.070;24.752;2023-08-01T12:06:09;7.38;;;6.88;;
10947;SDS011;5526;42.070;24.752;2023-08-01T12:08:37;7.72;;;7.20;;
10947;SDS011;5526;42.070;24.752;2023-08-01T12:11:04;7.10;;;6.70;;
10947;SDS011;5526;42.070;24.752;2023-08-01T12:13:31;7.30;;;6.75;;
10947;SDS011;5526;42.070;24.752;2023-08-01T12:15:58;7.30;;;6.78;;
10947;SDS011;5526;42.070;24.752;2023-08-01T12:18:28;7.68;;;7.18;;
10947;SDS011;5526;42.070;24.752;2023-08-01T12:20:56;6.65;;;6.18;;
10947;SDS011;5526;42.070;24.752;2023-08-01T12:23:23;6.35;;;5.95;;
10947;SDS011;5526;42.070;24.752;2023-08-01T12:25:50;7.35;;;6.95;;
10947;SDS011;5526;42.070;24.752;2023-08-01T12:28:17;8.10;;;7.70;;
10947;SDS011;5526;42.070;24.752;2023-08-01T12:30:44;8.00;;;7.45;;
10947;SDS011;5526;42.070;24.752;2023-08-01T12:33:11;8.10;;;7.70;;
10947;SDS011;5526;42.070;24.752;2023-08-01T12:35:40;7.65;;;7.25;;
10947;SDS011;5526;42.070;24.752;2023-08-01T12:38:08;8.48;;;7.78;;
10947;SDS011;5526;42.070;24.752;2023-08-01T12:40:35;7.72;;;7.25;;
10947;SDS011;5526;42.070;24.752;2023-08-01T12:43:02;6.90;;;6.45;;
10947;SDS011;5526;42.070;24.752;2023-08-01T12:45:30;6.88;;;6.47;;
10947;SDS011;5526;42.070;24.752;2023-08-01T12:47:57;8.07;;;7.50;;
10947;SDS011;5526;42.070;24.752;2023-08-01T12:50:24;8.40;;;8.00;;
10947;SDS011;5526;42.070;24.752;2023-08-01T12:52:53;8.40;;;7.93;;
10947;SDS011;5526;42.070;24.752;2023-08-01T12:55:21;8.15;;;7.63;;
10947;SDS011;5526;42.070;24.752;2023-08-01T12:57:48;8.20;;;7.70;;
10947;SDS011;5526;42.070;24.752;2023-08-01T13:00:15;7.60;;;7.00;;
10947;SDS011;5526;42.070;24.752;2023-08-01T13:02:43;8.13;;;7.65;;
10947;SDS011;5526;42.070;24.752;2023-08-01T13:05:10;8.35;;;7.75;;
10947;SDS011;5526;42.070;24.752;2023-08-01T13:07:37;8.90;;;8.30;;
10947;SDS011;5526;42.070;24.752;2023-08-01T13:10:06;9.02;;;8.45;;
10947;SDS011;5526;42.070;24.752;2023-08-01T13:12:33;9.93;;;9.38;;
10947;SDS011;5526;42.070;24.752;2023-08-01T13:15:00;9.35;;;8.75;;
10947;SDS011;5526;42.070;24.752;2023-08-01T13:17:28;9.80;;;9.25;;
10947;SDS011;5526;42.070;24.752;2023-08-01T13:19:54;10.25;;;9.65;;
10947;SDS011;5526;42.070;24.752;2023-08-01T13:22:22;10.27;;;9.38;;
10947;SDS011;5526;42.070;24.752;2023-08-01T13:24:49;9.40;;;8.88;;
10947;SDS011;5526;42.070;24.752;2023-08-01T13:27:18;10.07;;;9.48;;
10947;SDS011;5526;42.070;24.752;2023-08-01T13:29:45;9.95;;;9.23;;
10947;SDS011;5526;42.070;24.752;2023-08-01T13:32:12;9.63;;;9.02;;
10947;SDS011;5526;42.070;24.752;2023-08-01T13:34:39;9.50;;;8.80;;
10947;SDS011;5526;42.070;24.752;2023-08-01T13:37:06;9.38;;;8.77;;
10947;SDS011;5526;42.070;24.752;2023-08-01T13:39:34;8.88;;;8.38;;
10947;SDS011;5526;42.070;24.752;2023-08-01T13:42:01;9.52;;;8.93;;
10947;SDS011;5526;42.070;24.752;2023-08-01T13:44:30;9.60;;;9.00;;
10947;SDS011;5526;42.070;24.752;2023-08-01T13:46:58;10.10;;;9.45;;
10947;SDS011;5526;42.070;24.752;2023-08-01T13:49:25;10.30;;;9.65;;
10947;SDS011;5526;42.070;24.752;2023-08-01T13:51:52;10.20;;;9.43;;
10947;SDS011;5526;42.070;24.752;2023-08-01T13:54:19;9.95;;;8.90;;
10947;SDS011;5526;42.070;24.752;2023-08-01T13:56:47;9.45;;;8.85;;
10947;SDS011;5526;42.070;24.752;2023-08-01T13:59:14;10.13;;;9.52;;
10947;SDS011;5526;42.070;24.752;2023-08-01T14:01:42;10.00;;;9.50;;
10947;SDS011;5526;42.070;24.752;2023-08-01T14:04:09;11.77;;;10.98;;
10947;SDS011;5526;42.070;24.752;2023-08-01T14:06:39;11.13;;;10.52;;
10947;SDS011;5526;42.070;24.752;2023-08-01T14:09:06;10.98;;;10.38;;
10947;SDS011;5526;42.070;24.752;2023-08-01T14:11:34;11.77;;;11.07;;
10947;SDS011;5526;42.070;24.752;2023-08-01T14:14:01;11.25;;;10.52;;
10947;SDS011;5526;42.070;24.752;2023-08-01T14:16:28;11.05;;;10.38;;
10947;SDS011;5526;42.070;24.752;2023-08-01T14:18:58;10.52;;;9.93;;
10947;SDS011;5526;42.070;24.752;2023-08-01T14:21:25;11.15;;;10.55;;
10947;SDS011;5526;42.070;24.752;2023-08-01T14:23:52;11.65;;;11.00;;
10947;SDS011;5526;42.070;24.752;2023-08-01T14:26:19;12.07;;;11.25;;
10947;SDS011;5526;42.070;24.752;2023-08-01T14:28:46;13.27;;;12.48;;
10947;SDS011;5526;42.070;24.752;2023-08-01T14:31:15;12.43;;;11.65;;
10947;SDS011;5526;42.070;24.752;2023-08-01T14:33:42;12.95;;;12.20;;
10947;SDS011;5526;42.070;24.752;2023-08-01T14:36:11;13.25;;;12.45;;
10947;SDS011;5526;42.070;24.752;2023-08-01T14:38:39;12.65;;;11.88;;
10947;SDS011;5526;42.070;24.752;2023-08-01T14:41:06;12.10;;;11.40;;
10947;SDS011;5526;42.070;24.752;2023-08-01T14:43:33;13.48;;;12.57;;
10947;SDS011;5526;42.070;24.752;2023-08-01T14:46:00;12.20;;;11.50;;
10947;SDS011;5526;42.070;24.752;2023-08-01T14:48:28;12.85;;;12.15;;
10947;SDS011;5526;42.070;24.752;2023-08-01T14:50:55;13.18;;;12.48;;